Time;durP1;ratioP1;P1;durP2;ratioP2;P2;SDS_P1;SDS_P2;PMS_P1;PMS_P2;Temp;Humidity;BMP_temperature;BMP_pressure;BME280_temperature;BME280_humidity;BME280_pressure;Samples;Min_cycle;Max_cycle;Signal;HPM_P1;HPM_P2
2022/08/03 00:01:52;;;;;;;5.85;3.90;;;21.60;99.90;;;;;;5093564;28;20032;-69
2022/08/03 00:04:18;;;;;;;5.13;3.50;;;21.50;99.90;;;;;;5093477;28;20394;-67
2022/08/03 00:06:43;;;;;;;6.38;3.80;;;21.50;99.90;;;;;;5075254;28;20028;-67
2022/08/03 00:09:10;;;;;;;7.00;3.13;;;21.50;99.90;;;;;;5093449;28;20024;-68
2022/08/03 00:11:37;;;;;;;3.92;2.97;;;21.60;99.90;;;;;;5093221;28;20400;-68
2022/08/03 00:14:04;;;;;;;10.13;3.45;;;21.60;99.90;;;;;;5093309;28;20040;-67
2022/08/03 00:16:30;;;;;;;4.97;3.70;;;21.60;99.90;;;;;;5093375;28;20028;-67
2022/08/03 00:18:55;;;;;;;6.07;3.40;;;21.60;99.90;;;;;;5093374;28;20491;-67
2022/08/03 00:21:21;;;;;;;5.03;3.75;;;21.70;99.90;;;;;;5093277;28;20024;-66
2022/08/03 00:23:48;;;;;;;3.45;3.15;;;;;;;;;;5093295;28;20417;-68
2022/08/03 00:26:13;;;;;;;4.90;3.28;;;21.90;99.90;;;;;;5093207;28;20051;-66
2022/08/03 00:28:39;;;;;;;3.65;3.35;;;22.10;99.90;;;;;;5074802;28;20024;-66
2022/08/03 00:31:06;;;;;;;6.88;3.53;;;22.10;99.90;;;;;;5093192;28;20099;-67
2022/08/03 00:33:32;;;;;;;4.68;3.10;;;22.10;99.90;;;;;;5074680;28;20039;-66
2022/08/03 00:35:57;;;;;;;5.82;3.30;;;22.10;99.90;;;;;;5093179;28;20036;-66
2022/08/03 00:38:23;;;;;;;8.20;3.47;;;22.10;99.90;;;;;;5093140;28;20054;-66
2022/08/03 00:40:50;;;;;;;3.65;3.35;;;;;;;;;;5093096;28;20415;-65
2022/08/03 00:43:16;;;;;;;4.82;3.65;;;;;;;;;;5093107;28;20043;-65
2022/08/03 00:45:42;;;;;;;6.05;3.72;;;22.10;99.90;;;;;;5093058;28;20472;-68
2022/08/03 00:48:10;;;;;;;8.70;3.60;;;21.80;99.90;;;;;;5092777;28;20024;-67
2022/08/03 00:50:41;;;;;;;4.75;3.40;;;;;;;;;;5092964;28;20073;-66
2022/08/03 00:53:10;;;;;;;6.10;3.77;;;21.80;99.90;;;;;;5074757;28;20032;-67
2022/08/03 00:55:37;;;;;;;5.20;2.85;;;21.60;99.90;;;;;;5092958;28;20785;-67
2022/08/03 00:58:05;;;;;;;7.55;3.63;;;21.60;99.90;;;;;;5092939;28;20095;-66
2022/08/03 01:00:32;;;;;;;6.75;3.90;;;21.50;99.90;;;;;;5092516;28;20044;-66
2022/08/03 01:02:58;;;;;;;3.65;3.35;;;21.50;99.90;;;;;;5092936;28;20028;-67
2022/08/03 01:05:24;;;;;;;6.85;4.10;;;21.60;99.90;;;;;;5092875;28;20388;-66
2022/08/03 01:08:05;;;;;;;4.72;3.80;;;;;;;;;;5092820;28;20547;-66
2022/08/03 01:10:46;;;;;;;6.10;3.50;;;;;;;;;;5074740;28;20024;-66
2022/08/03 01:13:21;;;;;;;7.18;3.85;;;;;;;;;;5092797;28;20021;-67
2022/08/03 01:15:57;;;;;;;6.90;3.80;;;;;;;;;;5095658;28;20468;-66
2022/08/03 01:18:32;;;;;;;6.18;4.25;;;;;;;;;;5096724;28;20468;-64
2022/08/03 01:21:00;;;;;;;7.05;3.75;;;;;;;;;;5096596;28;20052;-64
2022/08/03 01:23:35;;;;;;;4.78;4.13;;;;;;;;;;5096588;28;20527;-67
2022/08/03 01:26:13;;;;;;;6.75;4.13;;;21.50;99.90;;;;;;5096581;28;20024;-66
2022/08/03 01:29:29;;;;;;;4.88;4.38;;;21.20;99.90;;;;;;5096500;28;20024;-65
2022/08/03 01:32:07;;;;;;;11.25;4.78;;;21.20;99.90;;;;;;5013917;28;20060;-64
2022/08/03 01:34:38;;;;;;;8.45;4.82;;;21.10;99.90;;;;;;4997388;28;20037;-65
2022/08/03 01:37:06;;;;;;;8.25;5.90;;;21.00;99.90;;;;;;4997555;28;20057;-66
2022/08/03 01:39:34;;;;;;;8.38;5.18;;;21.10;99.90;;;;;;5013814;28;20109;-66
2022/08/03 01:42:05;;;;;;;8.32;5.22;;;21.20;99.90;;;;;;4997547;28;20064;-66
2022/08/03 01:44:37;;;;;;;7.13;6.38;;;21.20;99.90;;;;;;4997408;28;20030;-64
2022/08/03 01:47:05;;;;;;;9.02;5.82;;;21.00;99.90;;;;;;5013746;28;20072;-66
2022/08/03 01:49:36;;;;;;;10.23;5.30;;;21.00;99.90;;;;;;5013629;28;20046;-65
2022/08/03 01:52:03;;;;;;;11.68;5.00;;;20.90;99.90;;;;;;4997221;28;20080;-65
2022/08/03 01:54:29;;;;;;;7.40;5.05;;;20.90;99.90;;;;;;5013528;28;20045;-66
2022/08/03 01:56:57;;;;;;;12.75;4.60;;;20.80;99.90;;;;;;5013496;28;20069;-67
2022/08/03 01:59:25;;;;;;;18.13;5.60;;;20.80;99.90;;;;;;5013282;28;20050;-63
2022/08/03 02:01:52;;;;;;;9.45;4.63;;;;;;;;;;5017406;28;20081;-69
2022/08/03 02:04:18;;;;;;;7.00;5.47;;;;;;;;;;5096059;28;20028;-67
2022/08/03 02:06:46;;;;;;;9.15;5.22;;;;;;;;;;5077504;28;20122;-68
2022/08/03 02:09:13;;;;;;;8.00;4.85;;;;;;;;;;5095673;28;20039;-69
2022/08/03 02:11:39;;;;;;;5.53;4.60;;;20.80;99.90;;;;;;5095633;28;20483;-67
2022/08/03 02:14:06;;;;;;;7.57;4.68;;;20.90;99.90;;;;;;5095591;28;20111;-67
2022/08/03 02:16:34;;;;;;;10.05;4.50;;;20.90;99.90;;;;;;5077344;28;20028;-64
2022/08/03 02:19:03;;;;;;;7.63;4.75;;;21.00;99.90;;;;;;5077401;28;20020;-68
2022/08/03 02:21:32;;;;;;;6.32;4.82;;;21.00;99.90;;;;;;5095465;28;20081;-65
2022/08/03 02:23:58;;;;;;;5.90;4.20;;;21.00;99.90;;;;;;5095441;28;20376;-69
2022/08/03 02:26:27;;;;;;;8.07;4.80;;;21.00;99.90;;;;;;5094149;28;20032;-66
2022/08/03 02:28:56;;;;;;;8.70;4.68;;;20.90;99.90;;;;;;5095357;28;20017;-68
2022/08/03 02:31:27;;;;;;;5.30;4.80;;;20.90;99.90;;;;;;5077085;28;20036;-67
2022/08/03 02:33:57;;;;;;;10.25;5.35;;;20.80;99.90;;;;;;5095100;28;20084;-67
2022/08/03 02:36:26;;;;;;;8.30;5.03;;;;;;;;;;5077052;28;20534;-65
2022/08/03 02:38:56;;;;;;;6.55;4.70;;;20.70;99.90;;;;;;5095359;28;20031;-64
2022/08/03 02:41:34;;;;;;;7.63;4.95;;;20.70;99.90;;;;;;5095103;28;20081;-65
2022/08/03 02:44:02;;;;;;;10.13;5.43;;;20.80;99.90;;;;;;5076941;28;20468;-63
2022/08/03 02:46:33;;;;;;;10.00;5.95;;;20.90;99.90;;;;;;5076754;28;19911;-65
2022/08/03 02:49:01;;;;;;;9.48;5.75;;;20.90;99.90;;;;;;5094980;28;20111;-66
2022/08/03 02:51:31;;;;;;;13.30;6.78;;;20.80;99.90;;;;;;5094901;28;20058;-66
2022/08/03 02:54:00;;;;;;;10.88;5.72;;;20.80;99.90;;;;;;5094814;28;20032;-63
2022/08/03 02:56:27;;;;;;;8.23;5.15;;;20.70;99.90;;;;;;5076604;28;20093;-66
2022/08/03 02:58:53;;;;;;;5.72;4.55;;;20.80;99.90;;;;;;5094750;28;20032;-65
2022/08/03 03:01:21;;;;;;;12.50;5.70;;;20.80;99.90;;;;;;5094512;28;20048;-66
2022/08/03 03:03:49;;;;;;;9.85;5.57;;;20.90;99.90;;;;;;5094708;28;20024;-68
2022/08/03 03:06:16;;;;;;;8.60;4.78;;;20.90;99.90;;;;;;5094578;28;20032;-66
2022/08/03 03:08:43;;;;;;;11.82;5.28;;;21.00;99.90;;;;;;5076353;28;20400;-66
2022/08/03 03:11:10;;;;;;;10.40;6.00;;;21.00;99.90;;;;;;5076362;28;20059;-67
2022/08/03 03:13:37;;;;;;;8.75;5.30;;;21.00;99.90;;;;;;5094430;28;20039;-67
2022/08/03 03:16:05;;;;;;;6.50;5.38;;;21.00;99.90;;;;;;5076188;28;20024;-67
2022/08/03 03:18:33;;;;;;;10.93;5.40;;;21.10;99.90;;;;;;5076173;28;20053;-64
2022/08/03 03:21:01;;;;;;;9.32;6.30;;;21.00;99.90;;;;;;5094377;28;20024;-64
2022/08/03 03:23:28;;;;;;;11.27;6.10;;;21.00;99.90;;;;;;5094286;28;20483;-63
2022/08/03 03:25:57;;;;;;;11.05;5.72;;;20.90;99.90;;;;;;5094223;28;20452;-65
2022/08/03 03:28:24;;;;;;;13.82;5.78;;;20.90;99.90;;;;;;5094126;28;20461;-65
2022/08/03 03:30:50;;;;;;;10.43;7.07;;;20.90;99.90;;;;;;5094438;28;20041;-64
2022/08/03 03:33:16;;;;;;;6.20;5.60;;;20.60;99.90;;;;;;5094056;28;20040;-67
2022/08/03 03:35:45;;;;;;;11.23;6.25;;;20.50;99.90;;;;;;5094080;28;20081;-66
2022/08/03 03:38:11;;;;;;;9.13;5.95;;;20.60;99.90;;;;;;5093674;28;20024;-65
2022/08/03 03:40:38;;;;;;;15.85;6.22;;;20.60;99.90;;;;;;5093974;28;20024;-65
2022/08/03 03:43:08;;;;;;;22.27;6.78;;;20.50;99.90;;;;;;5093966;28;20016;-66
2022/08/03 03:45:35;;;;;;;9.23;6.23;;;20.60;99.90;;;;;;5093869;28;20038;-67
2022/08/03 03:48:03;;;;;;;15.45;5.78;;;20.70;99.90;;;;;;5093836;28;20020;-67
2022/08/03 03:50:31;;;;;;;6.68;4.90;;;20.90;99.90;;;;;;5093979;28;20039;-65
2022/08/03 03:52:57;;;;;;;7.88;5.03;;;21.00;99.90;;;;;;5075548;28;20028;-64
2022/08/03 03:55:23;;;;;;;7.50;4.60;;;21.30;99.90;;;;;;5075338;28;20126;-67
2022/08/03 03:57:49;;;;;;;9.25;4.22;;;21.70;99.90;;;;;;5093339;28;20373;-66
2022/08/03 04:00:17;;;;;;;6.78;4.60;;;21.60;99.90;;;;;;5074994;28;20055;-68
2022/08/03 04:02:44;;;;;;;5.85;4.80;;;21.60;99.90;;;;;;5075413;28;20024;-67
2022/08/03 04:10:58;;;;;;;5.85;3.85;;;21.80;99.90;;;;;;5093477;28;20043;-66
2022/08/03 04:13:28;;;;;;;7.20;5.55;;;22.10;99.90;;;;;;5093388;28;20038;-66
2022/08/03 04:15:56;;;;;;;7.95;4.43;;;22.00;99.90;;;;;;5093703;28;20468;-66
2022/08/03 04:18:23;;;;;;;4.13;3.70;;;21.90;99.90;;;;;;5093346;28;20028;-67
2022/08/03 04:20:51;;;;;;;6.05;4.13;;;22.30;99.90;;;;;;5093385;28;20020;-68
2022/08/03 04:23:21;;;;;;;9.38;4.70;;;22.30;99.90;;;;;;5093301;28;20052;-67
2022/08/03 04:25:49;;;;;;;9.35;5.07;;;22.30;99.90;;;;;;5093241;28;20103;-69
2022/08/03 04:28:16;;;;;;;5.70;4.88;;;22.00;99.90;;;;;;5075033;28;20054;-64
2022/08/03 04:30:47;;;;;;;6.75;4.80;;;21.90;99.90;;;;;;5093236;28;20020;-66
2022/08/03 04:33:15;;;;;;;6.47;4.53;;;21.90;99.90;;;;;;5093315;28;20060;-67
2022/08/03 04:35:43;;;;;;;6.93;4.83;;;21.80;99.90;;;;;;5092914;28;20051;-66
2022/08/03 04:38:13;;;;;;;6.00;4.40;;;21.70;99.90;;;;;;5093174;28;20458;-68
2022/08/03 04:40:41;;;;;;;15.77;4.80;;;21.60;99.90;;;;;;5093122;28;20057;-68
2022/08/03 04:43:10;;;;;;;9.27;5.10;;;21.70;99.90;;;;;;5092816;28;20383;-65
2022/08/03 04:45:36;;;;;;;9.03;5.47;;;21.70;99.90;;;;;;5093402;28;20379;-65
2022/08/03 04:48:02;;;;;;;7.55;5.38;;;21.70;99.90;;;;;;5092743;28;20103;-66
2022/08/03 04:50:28;;;;;;;9.38;5.20;;;21.70;99.90;;;;;;5095537;28;20024;-68
2022/08/03 04:52:55;;;;;;;6.60;4.95;;;;;;;;;;5078943;28;20032;-67
2022/08/03 04:55:27;;;;;;;6.47;4.90;;;;;;;;;;5078958;28;20469;-67
2022/08/03 04:57:53;;;;;;;9.68;4.68;;;21.50;99.90;;;;;;5078886;28;20024;-66
2022/08/03 05:00:20;;;;;;;11.20;4.55;;;21.60;99.90;;;;;;5096658;28;20067;-68
2022/08/03 05:02:46;;;;;;;7.43;4.85;;;21.60;99.90;;;;;;5078655;28;20028;-68
2022/08/03 05:05:11;;;;;;;5.67;4.20;;;21.60;99.90;;;;;;5097014;28;20028;-65
2022/08/03 05:07:38;;;;;;;7.00;4.17;;;21.70;99.90;;;;;;5096606;28;20047;-67
2022/08/03 05:10:09;;;;;;;4.68;4.20;;;21.70;99.90;;;;;;5096828;28;20024;-67
2022/08/03 05:12:35;;;;;;;;;;;21.80;99.90;;;;;;5079010;28;20024;-64
2022/08/03 05:15:01;;;;;;;7.07;4.22;;;21.80;99.90;;;;;;5096709;28;20374;-67
2022/08/03 05:17:27;;;;;;;8.02;4.22;;;21.90;99.90;;;;;;5096460;28;19955;-66
2022/08/03 05:19:54;;;;;;;7.70;3.70;;;21.90;99.90;;;;;;5078372;28;20468;-67
2022/08/03 05:22:21;;;;;;;4.30;3.53;;;22.00;99.90;;;;;;5096644;28;20028;-67
2022/08/03 05:24:47;;;;;;;7.55;4.28;;;22.10;99.90;;;;;;5096801;28;20039;-67
2022/08/03 05:27:18;;;;;;;6.30;4.65;;;22.10;99.90;;;;;;5078229;28;20388;-65
2022/08/03 05:29:44;;;;;;;8.20;4.20;;;;;;;;;;5096544;28;19904;-66
2022/08/03 05:32:10;;;;;;;14.10;4.65;;;22.10;99.90;;;;;;5096421;28;20098;-66
2022/08/03 05:34:36;;;;;;;5.57;4.13;;;22.30;99.90;;;;;;5096389;28;20047;-66
2022/08/03 05:37:02;;;;;;;5.40;4.70;;;;;;;;;;5096361;28;20337;-66
2022/08/03 05:39:28;;;;;;;4.65;3.65;;;22.30;99.90;;;;;;5096524;28;20055;-66
2022/08/03 05:41:53;;;;;;;8.67;4.17;;;22.50;99.90;;;;;;5096215;28;20103;-65
2022/08/03 05:44:19;;;;;;;7.20;4.55;;;22.50;99.90;;;;;;5096225;28;20518;-63
2022/08/03 05:46:45;;;;;;;7.97;5.30;;;22.60;99.90;;;;;;5096148;28;20074;-67
2022/08/03 05:49:11;;;;;;;6.80;4.05;;;22.70;99.90;;;;;;5095726;28;20028;-66
2022/08/03 05:51:37;;;;;;;12.38;6.00;;;22.70;99.90;;;;;;5095979;28;20055;-68
2022/08/03 05:54:03;;;;;;;9.70;5.65;;;22.80;99.90;;;;;;5077943;28;20107;-66
2022/08/03 05:56:28;;;;;;;12.57;5.55;;;22.90;99.90;;;;;;5095982;28;20027;-67
2022/08/03 05:58:54;;;;;;;6.15;5.20;;;22.90;99.90;;;;;;5095633;28;20028;-67
2022/08/03 06:01:21;;;;;;;11.73;6.40;;;23.00;99.90;;;;;;5095226;28;20077;-68
2022/08/03 06:03:48;;;;;;;6.25;4.10;;;;;;;;;;5095752;28;20051;-67
2022/08/03 06:06:14;;;;;;;5.47;3.53;;;23.00;99.90;;;;;;5095743;28;20020;-68
2022/08/03 06:08:41;;;;;;;8.30;3.28;;;23.20;99.90;;;;;;5095651;28;20024;-67
2022/08/03 06:11:07;;;;;;;4.60;3.80;;;23.30;99.90;;;;;;5095678;28;19904;-65
2022/08/03 06:13:33;;;;;;;8.68;4.82;;;23.30;99.90;;;;;;5095838;28;19911;-66
2022/08/03 06:15:59;;;;;;;7.60;4.60;;;23.40;99.90;;;;;;5095640;28;19904;-66
2022/08/03 06:18:25;;;;;;;9.55;4.55;;;23.40;99.90;;;;;;5077299;28;20081;-68
2022/08/03 06:20:51;;;;;;;5.55;3.78;;;23.50;99.90;;;;;;5095525;28;20517;-68
2022/08/03 06:23:17;;;;;;;9.53;4.20;;;23.50;99.90;;;;;;5095657;28;20456;-67
2022/08/03 06:25:43;;;;;;;10.90;4.50;;;23.60;99.90;;;;;;5077358;28;20035;-68
2022/08/03 06:28:09;;;;;;;5.40;3.47;;;23.70;99.90;;;;;;5077142;28;19904;-66
2022/08/03 06:30:35;;;;;;;6.32;3.42;;;23.80;99.90;;;;;;5094998;28;20408;-66
2022/08/03 06:33:01;;;;;;;7.10;3.83;;;23.80;99.90;;;;;;5077051;28;20152;-67
2022/08/03 06:35:27;;;;;;;7.75;3.35;;;;;;;;;;5094904;28;20040;-66
2022/08/03 06:37:54;;;;;;;9.68;5.78;;;23.90;99.90;;;;;;5095187;28;20051;-68
2022/08/03 06:40:27;;;;;;;8.75;4.68;;;24.00;99.90;;;;;;5076760;28;20480;-67
2022/08/03 06:42:54;;;;;;;13.68;6.43;;;;;;;;;;5095046;28;20058;-66
2022/08/03 06:45:20;;;;;;;14.43;4.95;;;24.20;99.90;;;;;;5094949;28;20059;-66
2022/08/03 06:47:46;;;;;;;5.75;3.80;;;24.30;99.90;;;;;;5094912;28;20059;-64
2022/08/03 06:50:12;;;;;;;10.68;3.58;;;;;;;;;;5094832;28;20077;-66
2022/08/03 06:52:38;;;;;;;13.85;3.55;;;;;;;;;;5094464;28;20024;-71
2022/08/03 06:55:05;;;;;;;9.65;3.75;;;;;;;;;;5093865;28;20036;-68
2022/08/03 06:57:31;;;;;;;7.18;3.40;;;;;;;;;;5094733;28;20533;-65
2022/08/03 07:00:00;;;;;;;8.45;3.53;;;;;;;;;;5094402;28;20154;-66
2022/08/03 07:02:28;;;;;;;9.00;3.47;;;24.40;99.90;;;;;;5076409;28;20031;-64
2022/08/03 07:04:54;;;;;;;8.40;2.70;;;;;;;;;;5094621;28;20031;-66
2022/08/03 07:07:20;;;;;;;3.58;3.00;;;;;;;;;;5094197;28;20366;-65
2022/08/03 07:09:47;;;;;;;7.60;2.78;;;25.10;99.90;;;;;;5094188;28;20495;-65
2022/08/03 07:12:12;;;;;;;9.35;2.63;;;25.40;99.90;;;;;;5092082;28;20028;-64
2022/08/03 07:14:38;;;;;;;6.30;2.83;;;25.40;99.90;;;;;;5093116;28;20538;-63
2022/08/03 07:17:04;;;;;;;7.40;3.80;;;25.50;99.90;;;;;;5094000;28;20169;-65
2022/08/03 07:19:30;;;;;;;5.82;2.47;;;25.60;99.90;;;;;;5094212;28;20472;-66
2022/08/03 07:21:56;;;;;;;5.63;2.90;;;25.90;99.90;;;;;;5094287;28;20528;-65
2022/08/03 07:24:22;;;;;;;7.28;2.63;;;25.80;99.90;;;;;;5093016;28;20095;-65
2022/08/03 07:26:47;;;;;;;4.40;2.83;;;26.00;99.90;;;;;;5093750;28;20038;-65
2022/08/03 07:29:13;;;;;;;6.90;3.45;;;26.00;99.90;;;;;;5094046;28;20089;-66
2022/08/03 07:31:39;;;;;;;6.18;3.17;;;26.10;99.90;;;;;;5075620;28;20455;-64
2022/08/03 07:34:05;;;;;;;7.75;3.45;;;26.30;99.90;;;;;;5093863;28;20040;-64
2022/08/03 07:36:31;;;;;;;8.43;2.40;;;26.40;99.90;;;;;;5093884;28;20054;-65
2022/08/03 07:38:57;;;;;;;4.80;2.53;;;26.50;99.90;;;;;;5075486;28;20111;-64
2022/08/03 07:41:23;;;;;;;8.63;2.78;;;26.50;99.90;;;;;;5093692;28;20031;-65
2022/08/03 07:43:49;;;;;;;9.30;3.38;;;26.70;99.90;;;;;;5075542;28;20028;-64
2022/08/03 07:46:14;;;;;;;4.28;2.92;;;26.90;99.90;;;;;;5075525;28;20076;-64
2022/08/03 07:48:40;;;;;;;12.98;3.15;;;27.10;99.90;;;;;;5093643;28;20035;-64
2022/08/03 07:51:06;;;;;;;14.82;3.45;;;26.90;99.90;;;;;;5093794;28;20024;-65
2022/08/03 07:53:32;;;;;;;4.93;3.05;;;27.00;99.90;;;;;;5093179;28;20503;-64
2022/08/03 07:55:58;;;;;;;6.20;2.70;;;27.10;99.90;;;;;;5093260;28;20059;-65
2022/08/03 07:58:24;;;;;;;5.88;3.08;;;27.20;99.90;;;;;;5093713;28;20120;-66
2022/08/03 08:00:51;;;;;;;6.80;2.88;;;27.50;99.90;;;;;;5074708;28;20101;-66
2022/08/03 08:03:17;;;;;;;4.38;3.47;;;27.60;99.90;;;;;;5093310;28;20036;-66
2022/08/03 08:05:43;;;;;;;6.25;3.00;;;27.70;99.90;;;;;;5093614;28;20034;-65
2022/08/03 08:08:09;;;;;;;2.92;2.63;;;27.80;99.90;;;;;;5093284;28;20130;-65
2022/08/03 08:10:35;;;;;;;7.82;3.67;;;27.90;99.90;;;;;;5093448;28;20524;-65
2022/08/03 08:13:02;;;;;;;7.40;2.50;;;28.00;99.90;;;;;;5093198;28;20035;-66
2022/08/03 08:15:28;;;;;;;5.85;2.47;;;28.00;99.90;;;;;;5075021;28;20042;-66
2022/08/03 08:17:57;;;;;;;7.97;2.92;;;28.10;99.90;;;;;;5093248;28;20078;-67
2022/08/03 08:20:26;;;;;;;8.27;2.40;;;28.40;99.90;;;;;;5089688;28;20020;-65
2022/08/03 08:22:53;;;;;;;6.40;2.40;;;28.50;99.90;;;;;;5092249;28;20498;-64
2022/08/03 08:25:19;;;;;;;2.55;2.35;;;28.60;99.90;;;;;;5091915;28;20097;-64
2022/08/03 08:27:49;;;;;;;4.47;2.20;;;28.70;99.90;;;;;;5092873;28;20483;-64
2022/08/03 08:30:17;;;;;;;6.93;1.92;;;28.70;99.90;;;;;;5092571;28;20365;-64
2022/08/03 08:32:44;;;;;;;9.20;2.60;;;28.90;99.90;;;;;;5092802;28;20024;-65
2022/08/03 08:35:11;;;;;;;6.65;2.20;;;29.00;99.90;;;;;;5074687;28;20139;-64
2022/08/03 08:37:38;;;;;;;4.20;2.28;;;29.20;99.90;;;;;;5074311;28;20035;-64
2022/08/03 08:40:05;;;;;;;2.58;2.20;;;29.20;99.90;;;;;;5092685;28;20111;-64
2022/08/03 08:42:31;;;;;;;11.93;2.92;;;29.40;99.90;;;;;;5092831;28;20024;-65
2022/08/03 08:44:59;;;;;;;3.55;1.85;;;29.50;99.90;;;;;;5092082;28;20442;-65
2022/08/03 08:47:29;;;;;;;3.42;2.03;;;29.60;99.90;;;;;;5091049;28;20074;-66
2022/08/03 08:49:57;;;;;;;6.93;2.40;;;29.60;99.90;;;;;;5092594;28;20051;-66
2022/08/03 08:52:26;;;;;;;3.95;1.70;;;29.80;99.90;;;;;;5092396;28;20051;-66
2022/08/03 08:54:57;;;;;;;5.80;2.63;;;29.90;99.90;;;;;;5092200;28;20024;-65
2022/08/03 08:57:28;;;;;;;3.65;2.20;;;30.20;98.90;;;;;;5092118;28;20055;-65
2022/08/03 08:59:55;;;;;;;;;;;30.20;99.50;;;;;;5092735;28;20052;-66
2022/08/03 09:02:28;;;;;;;4.88;2.00;;;30.40;98.40;;;;;;5074062;28;19903;-65
2022/08/03 09:04:54;;;;;;;5.22;2.38;;;30.50;99.30;;;;;;5091932;28;20497;-65
2022/08/03 09:07:20;;;;;;;4.30;1.98;;;30.60;97.50;;;;;;5089083;28;20028;-68
2022/08/03 09:09:47;;;;;;;2.88;2.20;;;30.70;97.80;;;;;;5092429;28;20028;-68
2022/08/03 09:12:13;;;;;;;3.95;2.70;;;31.00;97.20;;;;;;5091191;28;20169;-67
2022/08/03 09:14:39;;;;;;;2.70;2.40;;;31.10;97.10;;;;;;5092608;28;20055;-65
2022/08/03 09:17:05;;;;;;;6.88;2.30;;;31.10;95.60;;;;;;5091248;28;20031;-68
2022/08/03 09:19:32;;;;;;;6.22;2.88;;;31.20;95.70;;;;;;5092582;28;20024;-68
2022/08/03 09:22:11;;;;;;;4.70;2.28;;;31.40;94.60;;;;;;5092644;28;20054;-70
2022/08/03 09:24:55;;;;;;;5.28;2.17;;;31.40;94.40;;;;;;5091946;28;20044;-67
2022/08/03 09:27:21;;;;;;;1.92;1.83;;;31.50;94.30;;;;;;5092074;28;20111;-67
2022/08/03 09:29:52;;;;;;;2.58;2.38;;;31.40;93.10;;;;;;5092303;28;20035;-66
2022/08/03 09:32:23;;;;;;;3.80;2.28;;;31.60;92.40;;;;;;5092339;28;20024;-65
2022/08/03 09:34:50;;;;;;;7.15;2.95;;;31.80;93.00;;;;;;5092347;28;20065;-65
2022/08/03 09:37:18;;;;;;;6.55;1.90;;;32.20;91.70;;;;;;5096016;28;20073;-66
2022/08/03 09:39:44;;;;;;;4.63;1.90;;;32.30;91.00;;;;;;5096122;28;20127;-66
2022/08/03 09:42:18;;;;;;;2.38;2.17;;;32.40;91.50;;;;;;5093377;28;20024;-66
2022/08/03 09:44:48;;;;;;;3.45;2.10;;;32.60;90.70;;;;;;5095773;28;20368;-66
2022/08/03 09:47:26;;;;;;;4.05;2.20;;;32.60;89.70;;;;;;5096044;28;20059;-64
2022/08/03 09:50:00;;;;;;;1.90;1.80;;;32.70;87.70;;;;;;5096067;28;20043;-65
2022/08/03 09:52:32;;;;;;;3.08;1.90;;;32.70;86.00;;;;;;5095762;28;20024;-66
2022/08/03 09:54:59;;;;;;;5.22;2.28;;;32.90;85.20;;;;;;5088175;28;20042;-64
2022/08/03 09:57:26;;;;;;;4.13;2.30;;;;;;;;;;5096021;28;20024;-65
2022/08/03 09:59:57;;;;;;;2.42;2.03;;;33.40;85.10;;;;;;5077290;28;20411;-65
2022/08/03 10:02:25;;;;;;;4.70;1.95;;;33.50;84.40;;;;;;5092814;28;20024;-66
2022/08/03 10:04:51;;;;;;;2.40;1.92;;;33.80;82.50;;;;;;5077456;28;20051;-65
2022/08/03 10:07:21;;;;;;;3.35;1.80;;;33.80;81.70;;;;;;5095480;28;20077;-64
2022/08/03 10:27:24;;;;;;;5.05;1.90;;;;;;;;;;5046533;28;20956;-65
2022/08/03 10:29:55;;;;;;;7.20;1.90;;;35.30;75.90;;;;;;5046881;28;20061;-65
2022/08/03 10:32:29;;;;;;;13.95;2.17;;;35.50;76.10;;;;;;5046679;28;20028;-63
2022/08/03 10:35:06;;;;;;;6.00;2.33;;;;;;;;;;5046780;28;20058;-65
2022/08/03 10:37:36;;;;;;;5.35;2.40;;;36.50;72.00;;;;;;5099057;27;20071;-64
2022/08/03 10:40:03;;;;;;;4.50;2.05;;;;;;;;;;5060924;27;20461;-64
2022/08/03 10:42:33;;;;;;;3.88;2.25;;;37.10;70.90;;;;;;5046487;28;20034;-66
2022/08/03 10:45:05;;;;;;;2.67;1.45;;;;;;;;;;5046579;28;20026;-64
2022/08/03 10:47:33;;;;;;;2.53;1.85;;;37.90;68.70;;;;;;5046492;28;20025;-62
2022/08/03 10:50:00;;;;;;;4.47;2.30;;;38.90;67.20;;;;;;5045483;28;20017;-63
2022/08/03 10:52:26;;;;;;;2.80;1.80;;;39.00;67.40;;;;;;5046112;28;20021;-64
2022/08/03 10:57:52;;;;;;;4.57;2.10;;;39.30;65.40;;;;;;5046355;28;20098;-63
2022/08/03 11:00:22;;;;;;;2.40;2.00;;;39.70;63.30;;;;;;5046122;28;20025;-63
2022/08/03 11:03:07;;;;;;;3.95;1.92;;;39.80;62.30;;;;;;5044914;28;20410;-65
2022/08/03 11:05:39;;;;;;;2.67;1.75;;;39.90;62.10;;;;;;5046218;28;20041;-64
2022/08/03 11:08:18;;;;;;;3.17;1.70;;;40.40;62.80;;;;;;5046199;28;20110;-63
2022/08/03 11:10:44;;;;;;;3.78;1.80;;;;;;;;;;5046147;28;20049;-62
2022/08/03 11:13:14;;;;;;;3.15;1.58;;;;;;;;;;5046291;28;20028;-63
2022/08/03 11:15:45;;;;;;;6.88;2.67;;;41.50;58.20;;;;;;5045959;28;20086;-64
2022/08/03 11:18:12;;;;;;;2.05;1.85;;;41.50;58.90;;;;;;5046019;28;20033;-64
2022/08/03 11:20:58;;;;;;;6.30;1.83;;;42.20;56.10;;;;;;5045965;28;20028;-63
2022/08/03 11:23:41;;;;;;;3.00;1.63;;;42.30;56.30;;;;;;5044688;28;20111;-66
2022/08/03 11:26:12;;;;;;;2.00;1.80;;;42.90;57.20;;;;;;5045089;27;20048;-64
2022/08/03 11:28:40;;;;;;;2.40;1.80;;;42.10;55.90;;;;;;5032142;28;20077;-65
2022/08/03 11:31:21;;;;;;;7.32;2.03;;;41.60;57.00;;;;;;5031295;28;20021;-64
2022/08/03 11:34:04;;;;;;;6.20;2.03;;;42.40;56.50;;;;;;5032562;28;20032;-64
2022/08/03 11:36:30;;;;;;;2.97;1.83;;;43.50;54.20;;;;;;5032397;28;20025;-63
2022/08/03 11:39:15;;;;;;;3.67;1.85;;;43.80;70.90;;;;;;5032434;28;20040;-66
2022/08/03 11:41:42;;;;;;;2.90;1.75;;;;;;;;;;5032763;28;20096;-65
2022/08/03 11:44:07;;;;;;;4.45;1.70;;;44.00;55.70;;;;;;5031069;28;20397;-65
2022/08/03 11:46:45;;;;;;;2.03;1.77;;;44.10;52.80;;;;;;5029241;28;20116;-64
2022/08/03 11:49:11;;;;;;;2.95;1.85;;;44.30;53.10;;;;;;5032168;28;20082;-63
2022/08/03 11:51:39;;;;;;;4.05;2.20;;;43.60;53.00;;;;;;5032104;28;20021;-63
2022/08/03 11:54:06;;;;;;;3.47;2.20;;;;;;;;;;5032077;28;20022;-65
2022/08/03 11:56:46;;;;;;;2.00;1.42;;;43.70;52.30;;;;;;5031699;28;20022;-65
2022/08/03 11:59:12;;;;;;;3.15;1.73;;;44.60;55.10;;;;;;5032016;28;20426;-64
2022/08/03 12:01:39;;;;;;;3.58;1.75;;;44.20;50.90;;;;;;5032026;28;20112;-66
2022/08/03 12:04:06;;;;;;;4.85;2.15;;;44.40;51.30;;;;;;5112947;27;20047;-64
2022/08/03 12:06:53;;;;;;;4.72;2.10;;;45.50;71.50;;;;;;5136235;27;20022;-64
2022/08/03 12:09:18;;;;;;;6.07;2.00;;;45.60;50.00;;;;;;5086380;27;20034;-63
2022/08/03 12:11:47;;;;;;;4.40;1.90;;;;;;;;;;5031809;28;20070;-67
2022/08/03 12:14:17;;;;;;;3.30;1.77;;;46.40;49.30;;;;;;5030621;28;20464;-64
2022/08/03 12:16:47;;;;;;;4.97;1.70;;;46.70;50.20;;;;;;5031839;28;20041;-65
2022/08/03 12:19:13;;;;;;;5.07;2.10;;;46.40;68.70;;;;;;5031984;28;20544;-66
2022/08/03 12:21:49;;;;;;;3.97;1.85;;;46.60;49.10;;;;;;5031526;28;20452;-67
2022/08/03 12:24:15;;;;;;;5.43;1.88;;;46.50;49.20;;;;;;5031661;28;20074;-66
2022/08/03 12:26:50;;;;;;;5.80;1.88;;;46.40;49.40;;;;;;5030166;28;20136;-69
2022/08/03 12:29:17;;;;;;;5.43;2.50;;;;;;;;;;5031727;28;20029;-68
2022/08/03 12:31:43;;;;;;;4.78;2.13;;;;;;;;;;5031885;28;20029;-67
2022/08/03 12:34:10;;;;;;;2.90;2.63;;;;;;;;;;5031265;28;20068;-66
2022/08/03 12:36:37;;;;;;;2.90;1.95;;;45.90;48.30;;;;;;5031526;28;20527;-65
2022/08/03 12:39:06;;;;;;;5.70;1.85;;;45.90;47.90;;;;;;5030424;28;20041;-65
2022/08/03 12:41:36;;;;;;;2.75;1.88;;;;;;;;;;5031580;28;20441;-66
2022/08/03 12:44:04;;;;;;;2.75;1.88;;;;;;;;;;5031627;28;20046;-67
2022/08/03 12:46:33;;;;;;;8.45;2.08;;;;;;;;;;5031516;28;20022;-65
2022/08/03 12:49:00;;;;;;;4.35;1.63;;;;;;;;;;5031340;28;20097;-65
2022/08/03 12:51:28;;;;;;;2.05;1.83;;;47.60;47.50;;;;;;5031497;28;20039;-64
2022/08/03 12:53:55;;;;;;;6.70;1.90;;;44.40;50.00;;;;;;5031392;28;20073;-64
2022/08/03 12:56:21;;;;;;;5.72;2.60;;;41.40;52.20;;;;;;5031275;28;20029;-66
2022/08/03 12:58:49;;;;;;;6.80;2.22;;;41.00;52.50;;;;;;5031351;28;20108;-65
2022/08/03 13:01:16;;;;;;;8.25;2.50;;;38.90;55.50;;;;;;5031396;28;20017;-64
2022/08/03 13:03:44;;;;;;;3.42;2.53;;;38.00;56.70;;;;;;5031204;28;20403;-64
2022/08/03 13:06:15;;;;;;;5.88;2.50;;;37.40;57.50;;;;;;5030776;28;20477;-64
2022/08/03 13:08:41;;;;;;;12.00;3.13;;;36.70;58.00;;;;;;5028245;28;20025;-63
2022/08/03 13:11:24;;;;;;;5.95;2.95;;;36.70;58.60;;;;;;5028798;28;20028;-65
2022/08/03 13:13:52;;;;;;;5.07;2.60;;;36.00;59.50;;;;;;5031183;28;20030;-67
2022/08/03 13:16:20;;;;;;;4.55;2.75;;;35.80;59.50;;;;;;5055741;27;20105;-62
2022/08/03 13:18:47;;;;;;;4.68;2.60;;;37.50;58.70;;;;;;5030310;28;20025;-67
2022/08/03 13:21:14;;;;;;;6.88;2.30;;;37.50;59.50;;;;;;5031088;28;20498;-64
2022/08/03 13:23:41;;;;;;;7.07;2.50;;;42.00;54.20;;;;;;5027798;28;20029;-67
2022/08/03 13:26:08;;;;;;;2.90;2.45;;;;;;;;;;5029918;28;20090;-65
2022/08/03 13:28:33;;;;;;;3.08;2.45;;;41.90;52.10;;;;;;5099225;27;20490;-65
2022/08/03 13:31:00;;;;;;;6.75;2.72;;;41.20;52.20;;;;;;5131956;27;20020;-64
2022/08/03 13:33:27;;;;;;;5.40;2.20;;;40.00;54.30;;;;;;5131513;27;20463;-64
2022/08/03 13:35:53;;;;;;;14.73;2.72;;;39.30;55.50;;;;;;5134018;27;20067;-62